sensor_id;sensor_type;location;lat;lon;timestamp;P1;durP1;ratioP1;P2;durP2;ratioP2
65879;SDS011;52661;51.364;6.054;2022-07-29T00:00:01;2.60;;;0.73;;
65879;SDS011;52661;51.364;6.054;2022-07-29T00:02:27;2.72;;;1.40;;
65879;SDS011;52661;51.364;6.054;2022-07-29T00:04:53;5.07;;;0.63;;
65879;SDS011;52661;51.364;6.054;2022-07-29T00:07:18;2.88;;;0.50;;
65879;SDS011;52661;51.364;6.054;2022-07-29T00:09:44;2.67;;;0.68;;
65879;SDS011;52661;51.364;6.054;2022-07-29T00:12:09;3.85;;;0.70;;
65879;SDS011;52661;51.364;6.054;2022-07-29T00:14:35;4.45;;;0.73;;
65879;SDS011;52661;51.364;6.054;2022-07-29T00:17:00;3.23;;;0.90;;
65879;SDS011;52661;51.364;6.054;2022-07-29T00:19:25;6.87;;;0.50;;
65879;SDS011;52661;51.364;6.054;2022-07-29T00:21:51;3.58;;;0.45;;
65879;SDS011;52661;51.364;6.054;2022-07-29T00:24:16;2.10;;;0.75;;
65879;SDS011;52661;51.364;6.054;2022-07-29T00:26:42;3.95;;;0.88;;
65879;SDS011;52661;51.364;6.054;2022-07-29T00:29:07;2.80;;;0.93;;
65879;SDS011;52661;51.364;6.054;2022-07-29T00:31:32;1.98;;;0.70;;
65879;SDS011;52661;51.364;6.054;2022-07-29T00:33:58;4.37;;;0.77;;
65879;SDS011;52661;51.364;6.054;2022-07-29T00:36:23;3.15;;;0.47;;
65879;SDS011;52661;51.364;6.054;2022-07-29T00:38:48;3.30;;;0.73;;
65879;SDS011;52661;51.364;6.054;2022-07-29T00:41:15;2.05;;;0.73;;
65879;SDS011;52661;51.364;6.054;2022-07-29T00:43:41;1.83;;;0.75;;
65879;SDS011;52661;51.364;6.054;2022-07-29T00:46:07;4.57;;;1.10;;
65879;SDS011;52661;51.364;6.054;2022-07-29T00:48:32;4.53;;;1.08;;
65879;SDS011;52661;51.364;6.054;2022-07-29T00:50:58;3.67;;;0.50;;
65879;SDS011;52661;51.364;6.054;2022-07-29T00:53:25;3.22;;;0.90;;
65879;SDS011;52661;51.364;6.054;2022-07-29T00:55:51;2.67;;;0.70;;
65879;SDS011;52661;51.364;6.054;2022-07-29T00:58:18;5.47;;;0.70;;
65879;SDS011;52661;51.364;6.054;2022-07-29T01:00:44;6.50;;;0.77;;
65879;SDS011;52661;51.364;6.054;2022-07-29T01:03:09;4.43;;;0.85;;
65879;SDS011;52661;51.364;6.054;2022-07-29T01:05:35;2.28;;;0.88;;
65879;SDS011;52661;51.364;6.054;2022-07-29T01:08:00;3.58;;;0.80;;
65879;SDS011;52661;51.364;6.054;2022-07-29T01:10:27;3.45;;;0.82;;
65879;SDS011;52661;51.364;6.054;2022-07-29T01:12:55;4.05;;;0.82;;
65879;SDS011;52661;51.364;6.054;2022-07-29T01:15:23;5.07;;;0.93;;
65879;SDS011;52661;51.364;6.054;2022-07-29T01:31:16;4.75;;;1.02;;
65879;SDS011;52661;51.364;6.054;2022-07-29T01:33:48;4.05;;;0.88;;
65879;SDS011;52661;51.364;6.054;2022-07-29T01:36:18;3.58;;;0.82;;
65879;SDS011;52661;51.364;6.054;2022-07-29T01:38:51;3.20;;;0.77;;
65879;SDS011;52661;51.364;6.054;2022-07-29T01:41:24;6.82;;;0.93;;
65879;SDS011;52661;51.364;6.054;2022-07-29T01:43:56;5.97;;;0.93;;
65879;SDS011;52661;51.364;6.054;2022-07-29T01:46:25;3.97;;;0.88;;
65879;SDS011;52661;51.364;6.054;2022-07-29T01:48:56;4.07;;;0.75;;
65879;SDS011;52661;51.364;6.054;2022-07-29T01:51:36;2.30;;;1.08;;
65879;SDS011;52661;51.364;6.054;2022-07-29T01:54:10;5.57;;;1.33;;
65879;SDS011;52661;51.364;6.054;2022-07-29T01:56:47;7.07;;;0.93;;
65879;SDS011;52661;51.364;6.054;2022-07-29T01:59:14;3.10;;;1.40;;
65879;SDS011;52661;51.364;6.054;2022-07-29T02:01:41;4.93;;;1.10;;
65879;SDS011;52661;51.364;6.054;2022-07-29T02:04:10;10.25;;;1.40;;
65879;SDS011;52661;51.364;6.054;2022-07-29T02:06:37;4.05;;;0.90;;
65879;SDS011;52661;51.364;6.054;2022-07-29T02:09:05;4.57;;;1.08;;
65879;SDS011;52661;51.364;6.054;2022-07-29T02:11:33;6.65;;;1.58;;
65879;SDS011;52661;51.364;6.054;2022-07-29T02:14:01;3.78;;;1.38;;
65879;SDS011;52661;51.364;6.054;2022-07-29T02:16:28;5.85;;;1.08;;
65879;SDS011;52661;51.364;6.054;2022-07-29T02:18:57;3.90;;;1.05;;
65879;SDS011;52661;51.364;6.054;2022-07-29T02:21:25;5.80;;;1.52;;
65879;SDS011;52661;51.364;6.054;2022-07-29T02:23:52;6.88;;;1.60;;
65879;SDS011;52661;51.364;6.054;2022-07-29T02:26:20;5.03;;;1.20;;
65879;SDS011;52661;51.364;6.054;2022-07-29T02:28:47;4.38;;;1.75;;
65879;SDS011;52661;51.364;6.054;2022-07-29T02:33:42;3.53;;;0.57;;
65879;SDS011;52661;51.364;6.054;2022-07-29T02:36:08;3.83;;;1.20;;
65879;SDS011;52661;51.364;6.054;2022-07-29T02:38:35;5.30;;;1.17;;
65879;SDS011;52661;51.364;6.054;2022-07-29T02:41:18;3.35;;;1.02;;
65879;SDS011;52661;51.364;6.054;2022-07-29T02:43:48;2.95;;;1.05;;
65879;SDS011;52661;51.364;6.054;2022-07-29T02:46:20;4.70;;;0.88;;
65879;SDS011;52661;51.364;6.054;2022-07-29T02:51:46;3.70;;;1.25;;
65879;SDS011;52661;51.364;6.054;2022-07-29T02:54:22;4.90;;;1.45;;
65879;SDS011;52661;51.364;6.054;2022-07-29T02:56:51;3.55;;;1.35;;
65879;SDS011;52661;51.364;6.054;2022-07-29T02:59:22;3.00;;;1.65;;
65879;SDS011;52661;51.364;6.054;2022-07-29T03:01:51;4.60;;;1.10;;
65879;SDS011;52661;51.364;6.054;2022-07-29T03:04:19;6.68;;;1.50;;
65879;SDS011;52661;51.364;6.054;2022-07-29T03:06:46;4.90;;;1.50;;
65879;SDS011;52661;51.364;6.054;2022-07-29T03:09:13;5.80;;;1.60;;
65879;SDS011;52661;51.364;6.054;2022-07-29T03:11:39;5.53;;;1.45;;
65879;SDS011;52661;51.364;6.054;2022-07-29T03:14:06;5.30;;;1.30;;
65879;SDS011;52661;51.364;6.054;2022-07-29T03:16:32;3.42;;;1.08;;
65879;SDS011;52661;51.364;6.054;2022-07-29T03:19:01;8.57;;;1.55;;
65879;SDS011;52661;51.364;6.054;2022-07-29T03:21:28;3.65;;;0.98;;
65879;SDS011;52661;51.364;6.054;2022-07-29T03:23:53;3.35;;;0.85;;
65879;SDS011;52661;51.364;6.054;2022-07-29T03:26:18;3.53;;;1.63;;
65879;SDS011;52661;51.364;6.054;2022-07-29T03:28:44;4.93;;;1.38;;
65879;SDS011;52661;51.364;6.054;2022-07-29T03:31:09;4.10;;;1.13;;
65879;SDS011;52661;51.364;6.054;2022-07-29T03:33:34;5.97;;;1.50;;
65879;SDS011;52661;51.364;6.054;2022-07-29T03:35:59;2.80;;;1.63;;
65879;SDS011;52661;51.364;6.054;2022-07-29T03:38:27;5.60;;;1.45;;
65879;SDS011;52661;51.364;6.054;2022-07-29T03:41:03;5.55;;;1.55;;
65879;SDS011;52661;51.364;6.054;2022-07-29T03:43:36;7.57;;;1.42;;
65879;SDS011;52661;51.364;6.054;2022-07-29T03:46:04;4.60;;;1.45;;
65879;SDS011;52661;51.364;6.054;2022-07-29T03:48:32;5.25;;;1.60;;
65879;SDS011;52661;51.364;6.054;2022-07-29T03:51:01;3.75;;;1.30;;
65879;SDS011;52661;51.364;6.054;2022-07-29T03:53:27;3.30;;;1.55;;
65879;SDS011;52661;51.364;6.054;2022-07-29T03:55:54;5.15;;;1.63;;
65879;SDS011;52661;51.364;6.054;2022-07-29T03:58:24;4.50;;;1.80;;
65879;SDS011;52661;51.364;6.054;2022-07-29T04:00:52;3.90;;;1.38;;
65879;SDS011;52661;51.364;6.054;2022-07-29T04:03:18;3.20;;;1.38;;
65879;SDS011;52661;51.364;6.054;2022-07-29T04:05:44;4.68;;;1.60;;
65879;SDS011;52661;51.364;6.054;2022-07-29T04:08:09;6.73;;;1.47;;
65879;SDS011;52661;51.364;6.054;2022-07-29T04:10:34;5.07;;;1.70;;
65879;SDS011;52661;51.364;6.054;2022-07-29T04:13:00;2.70;;;1.52;;
65879;SDS011;52661;51.364;6.054;2022-07-29T04:15:25;5.03;;;1.75;;
65879;SDS011;52661;51.364;6.054;2022-07-29T04:17:53;4.30;;;1.73;;
65879;SDS011;52661;51.364;6.054;2022-07-29T04:20:19;2.58;;;1.23;;
65879;SDS011;52661;51.364;6.054;2022-07-29T04:22:44;3.47;;;1.60;;
65879;SDS011;52661;51.364;6.054;2022-07-29T04:25:09;5.83;;;2.10;;
65879;SDS011;52661;51.364;6.054;2022-07-29T04:27:34;4.93;;;1.63;;
65879;SDS011;52661;51.364;6.054;2022-07-29T04:30:00;3.88;;;1.67;;
65879;SDS011;52661;51.364;6.054;2022-07-29T04:32:26;7.25;;;1.52;;
65879;SDS011;52661;51.364;6.054;2022-07-29T04:34:51;6.57;;;2.08;;
65879;SDS011;52661;51.364;6.054;2022-07-29T04:37:17;5.63;;;1.85;;
65879;SDS011;52661;51.364;6.054;2022-07-29T04:39:42;4.40;;;1.77;;
65879;SDS011;52661;51.364;6.054;2022-07-29T04:42:08;4.18;;;1.70;;
65879;SDS011;52661;51.364;6.054;2022-07-29T04:44:33;4.27;;;1.67;;
65879;SDS011;52661;51.364;6.054;2022-07-29T04:46:58;5.13;;;2.00;;
65879;SDS011;52661;51.364;6.054;2022-07-29T04:49:24;6.37;;;1.30;;
65879;SDS011;52661;51.364;6.054;2022-07-29T04:51:49;6.95;;;1.70;;
65879;SDS011;52661;51.364;6.054;2022-07-29T04:54:15;4.85;;;1.92;;
65879;SDS011;52661;51.364;6.054;2022-07-29T04:56:40;3.28;;;1.73;;
65879;SDS011;52661;51.364;6.054;2022-07-29T04:59:06;5.20;;;2.05;;
65879;SDS011;52661;51.364;6.054;2022-07-29T05:01:31;3.50;;;2.03;;
65879;SDS011;52661;51.364;6.054;2022-07-29T05:03:57;6.00;;;1.40;;
65879;SDS011;52661;51.364;6.054;2022-07-29T05:06:22;5.93;;;1.53;;
65879;SDS011;52661;51.364;6.054;2022-07-29T05:08:47;7.77;;;1.67;;
65879;SDS011;52661;51.364;6.054;2022-07-29T05:11:13;4.13;;;2.05;;
65879;SDS011;52661;51.364;6.054;2022-07-29T05:13:38;5.83;;;1.37;;
65879;SDS011;52661;51.364;6.054;2022-07-29T05:16:04;5.53;;;2.00;;
65879;SDS011;52661;51.364;6.054;2022-07-29T05:18:29;4.22;;;1.70;;
65879;SDS011;52661;51.364;6.054;2022-07-29T05:20:55;4.03;;;2.25;;
65879;SDS011;52661;51.364;6.054;2022-07-29T05:23:20;6.97;;;1.98;;
65879;SDS011;52661;51.364;6.054;2022-07-29T05:25:45;7.13;;;1.83;;
65879;SDS011;52661;51.364;6.054;2022-07-29T05:28:11;5.68;;;2.53;;
65879;SDS011;52661;51.364;6.054;2022-07-29T05:30:36;4.57;;;2.10;;
65879;SDS011;52661;51.364;6.054;2022-07-29T05:33:02;4.70;;;1.47;;
65879;SDS011;52661;51.364;6.054;2022-07-29T05:35:27;7.13;;;1.73;;
65879;SDS011;52661;51.364;6.054;2022-07-29T05:37:52;3.50;;;1.40;;
65879;SDS011;52661;51.364;6.054;2022-07-29T05:40:18;7.93;;;2.17;;
65879;SDS011;52661;51.364;6.054;2022-07-29T05:42:43;4.78;;;1.77;;
65879;SDS011;52661;51.364;6.054;2022-07-29T05:45:08;4.53;;;1.63;;
65879;SDS011;52661;51.364;6.054;2022-07-29T05:47:34;3.75;;;1.60;;
65879;SDS011;52661;51.364;6.054;2022-07-29T05:49:59;5.77;;;1.87;;
65879;SDS011;52661;51.364;6.054;2022-07-29T05:52:25;6.72;;;2.13;;
65879;SDS011;52661;51.364;6.054;2022-07-29T05:54:51;4.00;;;1.50;;
65879;SDS011;52661;51.364;6.054;2022-07-29T05:57:17;6.07;;;1.70;;
65879;SDS011;52661;51.364;6.054;2022-07-29T05:59:43;5.93;;;1.85;;
65879;SDS011;52661;51.364;6.054;2022-07-29T06:02:08;4.95;;;2.17;;
65879;SDS011;52661;51.364;6.054;2022-07-29T06:04:34;4.03;;;1.47;;
65879;SDS011;52661;51.364;6.054;2022-07-29T06:06:59;2.95;;;1.45;;
65879;SDS011;52661;51.364;6.054;2022-07-29T06:09:24;6.47;;;2.42;;
65879;SDS011;52661;51.364;6.054;2022-07-29T06:11:51;5.38;;;1.52;;
65879;SDS011;52661;51.364;6.054;2022-07-29T06:14:17;3.97;;;2.17;;
65879;SDS011;52661;51.364;6.054;2022-07-29T06:16:42;4.53;;;1.73;;
65879;SDS011;52661;51.364;6.054;2022-07-29T06:19:08;3.67;;;1.57;;
65879;SDS011;52661;51.364;6.054;2022-07-29T06:21:33;7.13;;;1.93;;
65879;SDS011;52661;51.364;6.054;2022-07-29T06:23:58;4.40;;;1.90;;
65879;SDS011;52661;51.364;6.054;2022-07-29T06:26:24;6.57;;;1.88;;
65879;SDS011;52661;51.364;6.054;2022-07-29T06:28:49;4.43;;;1.80;;
65879;SDS011;52661;51.364;6.054;2022-07-29T06:31:14;6.37;;;2.10;;
65879;SDS011;52661;51.364;6.054;2022-07-29T06:33:40;6.60;;;2.33;;
65879;SDS011;52661;51.364;6.054;2022-07-29T06:36:05;5.40;;;2.80;;
65879;SDS011;52661;51.364;6.054;2022-07-29T06:38:31;5.70;;;1.90;;
65879;SDS011;52661;51.364;6.054;2022-07-29T06:40:58;2.80;;;1.17;;
65879;SDS011;52661;51.364;6.054;2022-07-29T06:43:42;7.50;;;1.88;;
65879;SDS011;52661;51.364;6.054;2022-07-29T06:46:14;5.15;;;2.28;;
65879;SDS011;52661;51.364;6.054;2022-07-29T06:48:41;5.28;;;2.28;;
65879;SDS011;52661;51.364;6.054;2022-07-29T06:51:07;6.10;;;2.53;;
65879;SDS011;52661;51.364;6.054;2022-07-29T06:53:33;6.05;;;2.17;;
65879;SDS011;52661;51.364;6.054;2022-07-29T06:55:59;6.82;;;2.38;;
65879;SDS011;52661;51.364;6.054;2022-07-29T06:58:26;4.95;;;1.95;;
65879;SDS011;52661;51.364;6.054;2022-07-29T07:00:52;4.78;;;2.72;;
65879;SDS011;52661;51.364;6.054;2022-07-29T07:03:18;7.03;;;2.25;;
65879;SDS011;52661;51.364;6.054;2022-07-29T07:05:44;5.10;;;1.83;;
65879;SDS011;52661;51.364;6.054;2022-07-29T07:08:10;5.72;;;2.15;;
65879;SDS011;52661;51.364;6.054;2022-07-29T07:10:37;4.20;;;2.22;;
65879;SDS011;52661;51.364;6.054;2022-07-29T07:13:03;6.90;;;2.55;;
65879;SDS011;52661;51.364;6.054;2022-07-29T07:15:29;5.65;;;1.88;;
65879;SDS011;52661;51.364;6.054;2022-07-29T07:17:54;5.75;;;1.77;;
65879;SDS011;52661;51.364;6.054;2022-07-29T07:20:20;4.23;;;1.80;;
65879;SDS011;52661;51.364;6.054;2022-07-29T07:22:45;8.15;;;2.72;;
65879;SDS011;52661;51.364;6.054;2022-07-29T07:25:11;10.70;;;2.90;;
65879;SDS011;52661;51.364;6.054;2022-07-29T07:27:36;5.45;;;2.38;;
65879;SDS011;52661;51.364;6.054;2022-07-29T07:30:02;4.80;;;3.00;;
65879;SDS011;52661;51.364;6.054;2022-07-29T07:32:30;6.30;;;2.55;;
65879;SDS011;52661;51.364;6.054;2022-07-29T07:34:56;6.90;;;2.67;;
65879;SDS011;52661;51.364;6.054;2022-07-29T07:37:22;5.68;;;2.22;;
65879;SDS011;52661;51.364;6.054;2022-07-29T07:39:49;6.15;;;2.75;;
65879;SDS011;52661;51.364;6.054;2022-07-29T07:42:14;5.63;;;2.58;;
65879;SDS011;52661;51.364;6.054;2022-07-29T07:44:40;5.87;;;2.87;;
65879;SDS011;52661;51.364;6.054;2022-07-29T07:47:05;5.03;;;2.07;;
65879;SDS011;52661;51.364;6.054;2022-07-29T07:49:30;4.18;;;2.13;;
65879;SDS011;52661;51.364;6.054;2022-07-29T07:51:56;6.53;;;2.95;;
65879;SDS011;52661;51.364;6.054;2022-07-29T07:54:21;4.43;;;2.33;;
65879;SDS011;52661;51.364;6.054;2022-07-29T07:56:47;5.65;;;2.67;;
65879;SDS011;52661;51.364;6.054;2022-07-29T07:59:14;5.97;;;2.83;;
65879;SDS011;52661;51.364;6.054;2022-07-29T08:01:40;7.38;;;2.60;;
65879;SDS011;52661;51.364;6.054;2022-07-29T08:04:05;5.83;;;3.03;;
65879;SDS011;52661;51.364;6.054;2022-07-29T08:06:30;8.43;;;3.88;;
65879;SDS011;52661;51.364;6.054;2022-07-29T08:08:56;5.57;;;2.78;;
65879;SDS011;52661;51.364;6.054;2022-07-29T08:11:21;5.63;;;2.67;;
65879;SDS011;52661;51.364;6.054;2022-07-29T08:13:46;6.72;;;2.78;;
65879;SDS011;52661;51.364;6.054;2022-07-29T08:16:12;8.52;;;3.35;;
65879;SDS011;52661;51.364;6.054;2022-07-29T08:18:38;5.53;;;2.47;;
65879;SDS011;52661;51.364;6.054;2022-07-29T08:21:04;8.35;;;3.20;;
65879;SDS011;52661;51.364;6.054;2022-07-29T08:23:30;4.68;;;2.58;;
65879;SDS011;52661;51.364;6.054;2022-07-29T08:26:03;7.18;;;2.70;;
65879;SDS011;52661;51.364;6.054;2022-07-29T08:28:29;6.68;;;3.17;;
65879;SDS011;52661;51.364;6.054;2022-07-29T08:30:54;7.18;;;3.38;;
65879;SDS011;52661;51.364;6.054;2022-07-29T08:33:19;7.93;;;3.70;;
65879;SDS011;52661;51.364;6.054;2022-07-29T08:35:45;5.80;;;3.10;;
65879;SDS011;52661;51.364;6.054;2022-07-29T08:38:10;5.20;;;3.00;;
65879;SDS011;52661;51.364;6.054;2022-07-29T08:40:36;5.30;;;2.95;;
65879;SDS011;52661;51.364;6.054;2022-07-29T08:43:05;8.00;;;3.33;;
65879;SDS011;52661;51.364;6.054;2022-07-29T08:45:39;8.77;;;3.08;;
65879;SDS011;52661;51.364;6.054;2022-07-29T08:48:08;4.57;;;2.85;;
65879;SDS011;52661;51.364;6.054;2022-07-29T08:50:35;6.85;;;3.45;;
65879;SDS011;52661;51.364;6.054;2022-07-29T08:53:01;6.13;;;3.88;;
65879;SDS011;52661;51.364;6.054;2022-07-29T08:55:28;5.18;;;3.20;;
65879;SDS011;52661;51.364;6.054;2022-07-29T08:57:53;11.60;;;3.85;;
65879;SDS011;52661;51.364;6.054;2022-07-29T09:00:20;8.82;;;3.83;;
65879;SDS011;52661;51.364;6.054;2022-07-29T09:02:47;6.45;;;3.58;;
65879;SDS011;52661;51.364;6.054;2022-07-29T09:05:19;8.80;;;3.40;;
65879;SDS011;52661;51.364;6.054;2022-07-29T09:07:44;6.47;;;3.50;;
65879;SDS011;52661;51.364;6.054;2022-07-29T09:10:12;6.65;;;3.30;;
65879;SDS011;52661;51.364;6.054;2022-07-29T09:12:38;8.48;;;3.63;;
65879;SDS011;52661;51.364;6.054;2022-07-29T09:15:04;6.18;;;4.00;;
65879;SDS011;52661;51.364;6.054;2022-07-29T09:17:40;9.85;;;4.18;;
65879;SDS011;52661;51.364;6.054;2022-07-29T09:20:18;5.45;;;3.40;;
65879;SDS011;52661;51.364;6.054;2022-07-29T09:22:47;7.25;;;3.72;;
65879;SDS011;52661;51.364;6.054;2022-07-29T09:25:14;12.27;;;4.05;;
65879;SDS011;52661;51.364;6.054;2022-07-29T09:28:04;7.43;;;4.18;;
65879;SDS011;52661;51.364;6.054;2022-07-29T09:30:30;10.25;;;3.47;;
65879;SDS011;52661;51.364;6.054;2022-07-29T09:33:00;9.32;;;4.85;;
65879;SDS011;52661;51.364;6.054;2022-07-29T09:35:27;6.30;;;3.45;;
65879;SDS011;52661;51.364;6.054;2022-07-29T09:37:53;7.35;;;3.80;;
65879;SDS011;52661;51.364;6.054;2022-07-29T09:40:20;7.82;;;3.58;;
65879;SDS011;52661;51.364;6.054;2022-07-29T09:42:47;8.18;;;3.75;;
65879;SDS011;52661;51.364;6.054;2022-07-29T09:45:13;8.02;;;3.75;;
65879;SDS011;52661;51.364;6.054;2022-07-29T09:47:53;6.68;;;3.40;;
65879;SDS011;52661;51.364;6.054;2022-07-29T09:50:19;6.53;;;3.63;;
65879;SDS011;52661;51.364;6.054;2022-07-29T09:52:49;8.90;;;3.85;;
65879;SDS011;52661;51.364;6.054;2022-07-29T09:55:16;6.95;;;3.85;;
65879;SDS011;52661;51.364;6.054;2022-07-29T09:57:43;6.78;;;3.95;;
65879;SDS011;52661;51.364;6.054;2022-07-29T10:00:10;5.80;;;3.40;;
65879;SDS011;52661;51.364;6.054;2022-07-29T10:02:39;6.97;;;4.30;;
65879;SDS011;52661;51.364;6.054;2022-07-29T10:07:51;4.68;;;3.55;;
65879;SDS011;52661;51.364;6.054;2022-07-29T10:10:19;8.20;;;3.58;;
65879;SDS011;52661;51.364;6.054;2022-07-29T10:13:01;6.15;;;4.32;;
65879;SDS011;52661;51.364;6.054;2022-07-29T10:15:32;10.75;;;4.20;;
65879;SDS011;52661;51.364;6.054;2022-07-29T10:18:02;7.25;;;3.50;;
65879;SDS011;52661;51.364;6.054;2022-07-29T10:20:27;8.00;;;5.70;;
65879;SDS011;52661;51.364;6.054;2022-07-29T10:22:53;9.68;;;4.18;;
65879;SDS011;52661;51.364;6.054;2022-07-29T10:25:20;8.27;;;5.10;;
65879;SDS011;52661;51.364;6.054;2022-07-29T10:27:47;9.90;;;4.93;;
65879;SDS011;52661;51.364;6.054;2022-07-29T10:30:13;7.47;;;4.53;;
65879;SDS011;52661;51.364;6.054;2022-07-29T10:32:51;8.55;;;4.43;;
65879;SDS011;52661;51.364;6.054;2022-07-29T10:40:54;8.35;;;4.43;;
65879;SDS011;52661;51.364;6.054;2022-07-29T10:43:48;10.85;;;5.68;;
65879;SDS011;52661;51.364;6.054;2022-07-29T10:46:16;7.03;;;3.85;;
65879;SDS011;52661;51.364;6.054;2022-07-29T10:59:45;10.23;;;4.30;;
65879;SDS011;52661;51.364;6.054;2022-07-29T11:07:21;8.13;;;4.43;;
65879;SDS011;52661;51.364;6.054;2022-07-29T11:15:03;8.17;;;3.90;;
65879;SDS011;52661;51.364;6.054;2022-07-29T11:17:30;6.90;;;3.65;;
65879;SDS011;52661;51.364;6.054;2022-07-29T11:28:50;5.85;;;2.75;;
65879;SDS011;52661;51.364;6.054;2022-07-29T11:31:19;5.35;;;3.00;;
65879;SDS011;52661;51.364;6.054;2022-07-29T11:39:38;8.18;;;3.45;;
65879;SDS011;52661;51.364;6.054;2022-07-29T11:44:56;7.78;;;3.15;;
65879;SDS011;52661;51.364;6.054;2022-07-29T11:47:22;6.28;;;2.78;;
65879;SDS011;52661;51.364;6.054;2022-07-29T11:49:52;4.50;;;2.38;;
65879;SDS011;52661;51.364;6.054;2022-07-29T11:52:18;6.38;;;3.30;;
65879;SDS011;52661;51.364;6.054;2022-07-29T11:54:44;6.18;;;2.38;;
65879;SDS011;52661;51.364;6.054;2022-07-29T11:57:13;4.55;;;1.55;;
65879;SDS011;52661;51.364;6.054;2022-07-29T11:59:41;5.28;;;1.70;;
65879;SDS011;52661;51.364;6.054;2022-07-29T12:02:08;5.88;;;2.42;;
65879;SDS011;52661;51.364;6.054;2022-07-29T12:04:34;4.95;;;2.45;;
65879;SDS011;52661;51.364;6.054;2022-07-29T12:09:39;4.75;;;1.92;;
65879;SDS011;52661;51.364;6.054;2022-07-29T12:12:04;5.30;;;2.78;;
65879;SDS011;52661;51.364;6.054;2022-07-29T12:14:33;4.75;;;1.98;;
65879;SDS011;52661;51.364;6.054;2022-07-29T12:16:59;6.63;;;2.28;;
65879;SDS011;52661;51.364;6.054;2022-07-29T12:19:25;5.68;;;2.75;;
65879;SDS011;52661;51.364;6.054;2022-07-29T12:21:52;7.03;;;3.38;;
65879;SDS011;52661;51.364;6.054;2022-07-29T12:24:19;6.30;;;2.88;;
65879;SDS011;52661;51.364;6.054;2022-07-29T12:26:59;4.28;;;2.70;;
65879;SDS011;52661;51.364;6.054;2022-07-29T12:29:25;6.57;;;2.47;;
65879;SDS011;52661;51.364;6.054;2022-07-29T12:31:54;5.05;;;2.40;;
65879;SDS011;52661;51.364;6.054;2022-07-29T12:34:22;4.68;;;2.08;;
65879;SDS011;52661;51.364;6.054;2022-07-29T12:36:49;7.10;;;3.65;;
65879;SDS011;52661;51.364;6.054;2022-07-29T12:39:17;4.75;;;2.10;;
65879;SDS011;52661;51.364;6.054;2022-07-29T12:41:44;8.15;;;2.40;;
65879;SDS011;52661;51.364;6.054;2022-07-29T12:44:10;5.50;;;1.95;;
65879;SDS011;52661;51.364;6.054;2022-07-29T12:46:35;6.07;;;3.00;;
65879;SDS011;52661;51.364;6.054;2022-07-29T12:49:01;4.75;;;2.10;;
65879;SDS011;52661;51.364;6.054;2022-07-29T12:51:31;3.92;;;2.45;;
65879;SDS011;52661;51.364;6.054;2022-07-29T12:54:06;20.33;;;6.15;;
65879;SDS011;52661;51.364;6.054;2022-07-29T12:56:35;6.25;;;2.90;;
65879;SDS011;52661;51.364;6.054;2022-07-29T12:59:10;6.03;;;3.03;;
65879;SDS011;52661;51.364;6.054;2022-07-29T13:01:36;12.85;;;4.38;;
65879;SDS011;52661;51.364;6.054;2022-07-29T13:04:02;9.43;;;3.23;;
65879;SDS011;52661;51.364;6.054;2022-07-29T13:08:59;5.43;;;2.30;;
65879;SDS011;52661;51.364;6.054;2022-07-29T13:11:29;7.35;;;3.58;;
65879;SDS011;52661;51.364;6.054;2022-07-29T13:13:58;4.30;;;2.17;;
65879;SDS011;52661;51.364;6.054;2022-07-29T13:16:24;5.43;;;2.05;;
65879;SDS011;52661;51.364;6.054;2022-07-29T13:19:02;3.38;;;2.17;;
65879;SDS011;52661;51.364;6.054;2022-07-29T13:21:32;4.35;;;2.75;;
65879;SDS011;52661;51.364;6.054;2022-07-29T13:23:58;3.13;;;2.63;;
65879;SDS011;52661;51.364;6.054;2022-07-29T13:26:23;4.90;;;2.03;;
65879;SDS011;52661;51.364;6.054;2022-07-29T13:28:48;4.10;;;1.90;;
65879;SDS011;52661;51.364;6.054;2022-07-29T13:31:13;5.00;;;2.43;;
65879;SDS011;52661;51.364;6.054;2022-07-29T13:33:39;4.27;;;2.27;;
65879;SDS011;52661;51.364;6.054;2022-07-29T13:36:04;3.70;;;2.35;;
65879;SDS011;52661;51.364;6.054;2022-07-29T13:38:32;4.22;;;1.88;;
65879;SDS011;52661;51.364;6.054;2022-07-29T13:40:58;3.83;;;2.42;;
65879;SDS011;52661;51.364;6.054;2022-07-29T13:43:23;4.75;;;2.33;;
65879;SDS011;52661;51.364;6.054;2022-07-29T13:45:48;4.10;;;2.53;;
65879;SDS011;52661;51.364;6.054;2022-07-29T13:48:14;4.70;;;2.40;;
65879;SDS011;52661;51.364;6.054;2022-07-29T13:50:39;9.67;;;2.57;;
65879;SDS011;52661;51.364;6.054;2022-07-29T13:53:04;4.30;;;2.97;;
65879;SDS011;52661;51.364;6.054;2022-07-29T13:55:29;4.63;;;2.40;;
65879;SDS011;52661;51.364;6.054;2022-07-29T13:57:55;4.50;;;3.13;;
65879;SDS011;52661;51.364;6.054;2022-07-29T14:00:20;4.27;;;2.17;;
65879;SDS011;52661;51.364;6.054;2022-07-29T14:02:46;5.30;;;2.65;;
65879;SDS011;52661;51.364;6.054;2022-07-29T14:05:11;6.27;;;2.97;;
65879;SDS011;52661;51.364;6.054;2022-07-29T14:07:37;3.70;;;2.83;;
65879;SDS011;52661;51.364;6.054;2022-07-29T14:10:03;5.78;;;2.33;;
65879;SDS011;52661;51.364;6.054;2022-07-29T14:12:29;5.03;;;2.78;;
65879;SDS011;52661;51.364;6.054;2022-07-29T14:14:55;6.13;;;3.07;;
65879;SDS011;52661;51.364;6.054;2022-07-29T14:17:20;3.10;;;2.20;;
65879;SDS011;52661;51.364;6.054;2022-07-29T14:19:45;5.43;;;2.27;;
65879;SDS011;52661;51.364;6.054;2022-07-29T14:22:11;3.33;;;1.85;;
65879;SDS011;52661;51.364;6.054;2022-07-29T14:24:36;3.97;;;2.07;;
65879;SDS011;52661;51.364;6.054;2022-07-29T14:27:02;4.60;;;2.63;;
65879;SDS011;52661;51.364;6.054;2022-07-29T14:29:27;5.78;;;2.72;;
65879;SDS011;52661;51.364;6.054;2022-07-29T14:31:53;5.32;;;2.38;;
65879;SDS011;52661;51.364;6.054;2022-07-29T14:34:18;5.00;;;2.63;;
65879;SDS011;52661;51.364;6.054;2022-07-29T14:36:44;4.03;;;2.40;;
65879;SDS011;52661;51.364;6.054;2022-07-29T14:39:09;3.53;;;2.17;;
65879;SDS011;52661;51.364;6.054;2022-07-29T14:41:34;5.18;;;2.50;;
65879;SDS011;52661;51.364;6.054;2022-07-29T14:44:00;4.40;;;3.10;;
65879;SDS011;52661;51.364;6.054;2022-07-29T14:46:28;5.85;;;2.47;;
65879;SDS011;52661;51.364;6.054;2022-07-29T14:48:53;7.35;;;2.40;;
65879;SDS011;52661;51.364;6.054;2022-07-29T14:51:19;3.60;;;2.05;;
65879;SDS011;52661;51.364;6.054;2022-07-29T14:53:47;3.78;;;1.92;;
65879;SDS011;52661;51.364;6.054;2022-07-29T14:56:12;5.50;;;1.47;;
65879;SDS011;52661;51.364;6.054;2022-07-29T14:58:38;4.33;;;1.80;;
65879;SDS011;52661;51.364;6.054;2022-07-29T15:01:03;3.37;;;1.37;;
65879;SDS011;52661;51.364;6.054;2022-07-29T15:03:28;4.40;;;1.60;;
65879;SDS011;52661;51.364;6.054;2022-07-29T15:05:54;2.92;;;1.42;;
65879;SDS011;52661;51.364;6.054;2022-07-29T15:08:20;2.78;;;1.92;;
65879;SDS011;52661;51.364;6.054;2022-07-29T15:10:47;5.72;;;1.95;;
65879;SDS011;52661;51.364;6.054;2022-07-29T15:13:13;4.35;;;2.10;;
65879;SDS011;52661;51.364;6.054;2022-07-29T15:15:38;5.40;;;1.70;;
65879;SDS011;52661;51.364;6.054;2022-07-29T15:18:04;3.35;;;1.83;;
65879;SDS011;52661;51.364;6.054;2022-07-29T15:20:29;3.13;;;1.95;;
65879;SDS011;52661;51.364;6.054;2022-07-29T15:22:55;6.32;;;2.45;;
65879;SDS011;52661;51.364;6.054;2022-07-29T15:25:21;3.08;;;1.45;;
65879;SDS011;52661;51.364;6.054;2022-07-29T15:27:47;9.95;;;2.72;;
65879;SDS011;52661;51.364;6.054;2022-07-29T15:30:13;5.15;;;1.88;;
65879;SDS011;52661;51.364;6.054;2022-07-29T15:32:41;2.50;;;1.33;;
65879;SDS011;52661;51.364;6.054;2022-07-29T15:35:06;6.30;;;1.98;;
65879;SDS011;52661;51.364;6.054;2022-07-29T15:37:32;4.05;;;1.73;;
65879;SDS011;52661;51.364;6.054;2022-07-29T15:39:59;4.22;;;1.98;;
65879;SDS011;52661;51.364;6.054;2022-07-29T15:42:25;4.00;;;1.75;;
65879;SDS011;52661;51.364;6.054;2022-07-29T15:44:51;2.70;;;1.43;;
65879;SDS011;52661;51.364;6.054;2022-07-29T15:47:16;4.17;;;1.80;;
65879;SDS011;52661;51.364;6.054;2022-07-29T15:49:41;3.30;;;1.60;;
65879;SDS011;52661;51.364;6.054;2022-07-29T15:52:08;3.63;;;1.83;;
65879;SDS011;52661;51.364;6.054;2022-07-29T15:54:35;3.05;;;1.42;;
65879;SDS011;52661;51.364;6.054;2022-07-29T15:59:27;7.63;;;2.60;;